createdAt,value
2022-10-14T00:01:21.928Z,4.55
2022-10-14T00:03:50.443Z,7.38
2022-10-14T00:06:20.276Z,3.53
2022-10-14T00:08:47.971Z,4.05
2022-10-14T00:11:18.478Z,4.45
2022-10-14T00:13:46.318Z,3.85
2022-10-14T00:16:23.180Z,3.17
2022-10-14T00:18:51.529Z,3.47
2022-10-14T00:21:19.588Z,3.60
2022-10-14T00:23:47.741Z,3.90
2022-10-14T00:26:17.870Z,4.00
2022-10-14T00:28:45.753Z,3.78
2022-10-14T00:31:14.137Z,3.95
2022-10-14T00:33:41.929Z,5.05
2022-10-14T00:36:11.834Z,3.55
2022-10-14T00:38:39.705Z,3.33
2022-10-14T00:41:07.384Z,3.08
2022-10-14T00:43:57.602Z,2.88
2022-10-14T00:46:26.733Z,2.92
2022-10-14T00:48:54.709Z,4.47
2022-10-14T00:51:22.643Z,3.33
2022-10-14T00:53:50.447Z,3.67
2022-10-14T00:56:24.728Z,4.10
2022-10-14T00:58:53.135Z,2.95
2022-10-14T01:01:20.843Z,23.75
2022-10-14T01:03:48.539Z,3.60
2022-10-14T01:06:43.304Z,2.83
2022-10-14T01:12:27.556Z,2.95
2022-10-14T01:15:12.546Z,3.78
2022-10-14T01:17:51.214Z,3.88
2022-10-14T01:20:44.789Z,3.58
2022-10-14T01:23:18.669Z,3.42
2022-10-14T01:26:04.669Z,3.42
2022-10-14T01:28:35.847Z,2.90
2022-10-14T01:31:11.158Z,3.95
2022-10-14T01:33:45.613Z,3.00
2022-10-14T01:36:19.376Z,3.08
2022-10-14T01:39:16.042Z,2.30
2022-10-14T01:41:49.615Z,3.67
2022-10-14T01:44:20.149Z,2.95
2022-10-14T01:46:53.175Z,4.32
2022-10-14T01:49:35.420Z,2.63
2022-10-14T01:52:15.676Z,3.05
2022-10-14T01:54:47.166Z,5.20
2022-10-14T01:57:19.369Z,2.60
2022-10-14T01:59:48.137Z,3.95
2022-10-14T02:02:15.731Z,1.95
2022-10-14T02:04:43.304Z,5.10
2022-10-14T02:07:25.895Z,4.07
2022-10-14T02:10:25.126Z,2.90
2022-10-14T02:12:55.738Z,3.13
2022-10-14T02:15:35.525Z,2.42
2022-10-14T02:18:23.966Z,2.55
2022-10-14T02:21:18.066Z,3.58
2022-10-14T02:23:50.438Z,2.60
2022-10-14T02:26:19.071Z,1.90
2022-10-14T02:28:48.438Z,3.35
2022-10-14T02:31:18.949Z,2.75
2022-10-14T02:33:51.949Z,7.13
2022-10-14T02:36:22.560Z,2.60
2022-10-14T02:38:50.766Z,3.28
2022-10-14T02:41:21.523Z,2.17
2022-10-14T02:43:49.350Z,4.72
2022-10-14T02:46:21.320Z,2.42
2022-10-14T02:48:49.946Z,3.60
2022-10-14T02:51:17.754Z,2.15
2022-10-14T02:53:46.497Z,4.38
2022-10-14T02:56:14.657Z,1.63
2022-10-14T02:58:42.331Z,2.50
2022-10-14T03:01:11.538Z,2.13
2022-10-14T03:03:39.025Z,2.75
2022-10-14T03:06:09.907Z,3.15
2022-10-14T03:08:38.679Z,2.05
2022-10-14T03:11:06.445Z,1.40
2022-10-14T03:13:34.265Z,4.13
2022-10-14T03:16:01.964Z,2.30
2022-10-14T03:18:30.749Z,2.88
2022-10-14T03:20:58.378Z,3.78
2022-10-14T03:23:26.101Z,4.68
2022-10-14T03:25:54.004Z,2.53
2022-10-14T03:28:22.026Z,3.33
2022-10-14T03:30:50.409Z,2.13
2022-10-14T03:33:20.559Z,3.25
2022-10-14T03:35:48.857Z,3.58
2022-10-14T03:38:16.912Z,3.35
2022-10-14T03:40:45.921Z,2.28
2022-10-14T03:43:13.686Z,6.75
2022-10-14T03:45:41.327Z,3.70
2022-10-14T03:48:09.036Z,3.38
2022-10-14T03:50:37.369Z,3.88
2022-10-14T03:53:04.971Z,4.35
2022-10-14T03:55:32.658Z,2.78
2022-10-14T03:58:00.049Z,5.20
2022-10-14T04:00:27.649Z,2.15
2022-10-14T04:02:55.100Z,2.10
2022-10-14T04:05:22.872Z,2.75
2022-10-14T04:07:50.549Z,5.15
2022-10-14T04:10:18.203Z,2.10
2022-10-14T04:12:45.900Z,2.47
2022-10-14T04:15:13.601Z,3.17
2022-10-14T04:17:41.322Z,5.43
2022-10-14T04:20:09.166Z,7.57
2022-10-14T04:22:37.064Z,7.32
2022-10-14T04:25:05.481Z,3.78
2022-10-14T04:27:33.933Z,5.22
2022-10-14T04:30:02.735Z,5.25
2022-10-14T04:32:30.268Z,8.13
2022-10-14T04:34:57.882Z,6.50
2022-10-14T04:37:25.681Z,3.30
2022-10-14T04:39:53.902Z,10.38
2022-10-14T04:42:22.392Z,2.60
2022-10-14T04:44:50.721Z,6.32
2022-10-14T04:47:18.302Z,2.38
2022-10-14T04:49:45.980Z,6.50
2022-10-14T04:52:13.907Z,8.05
2022-10-14T04:54:41.487Z,8.32
2022-10-14T04:57:10.144Z,12.48
2022-10-14T04:59:37.848Z,11.13
2022-10-14T05:02:05.606Z,16.27
2022-10-14T05:04:33.312Z,10.30
2022-10-14T05:07:00.885Z,11.65
2022-10-14T05:09:28.823Z,4.40
2022-10-14T05:11:56.768Z,11.00
2022-10-14T05:14:24.502Z,6.40
2022-10-14T05:16:52.507Z,11.90
2022-10-14T05:19:21.583Z,11.05
2022-10-14T05:21:51.245Z,7.00
2022-10-14T05:24:19.981Z,10.48
2022-10-14T05:26:47.542Z,10.45
2022-10-14T05:29:15.426Z,8.23
2022-10-14T05:31:43.947Z,10.70
2022-10-14T05:34:12.661Z,26.63
2022-10-14T05:36:40.467Z,13.32
2022-10-14T05:39:08.350Z,10.75
2022-10-14T05:41:35.935Z,12.70
2022-10-14T05:44:03.684Z,19.65
2022-10-14T05:46:31.500Z,10.65
2022-10-14T05:49:00.485Z,11.85
2022-10-14T05:51:28.295Z,33.40
2022-10-14T05:53:58.661Z,21.55
2022-10-14T05:56:26.553Z,25.08
2022-10-14T05:58:54.305Z,22.92
2022-10-14T06:01:22.232Z,36.10
2022-10-14T06:03:53.747Z,15.80
2022-10-14T06:06:25.314Z,41.67
2022-10-14T06:08:56.400Z,30.48
2022-10-14T06:11:24.184Z,23.80
2022-10-14T06:13:52.141Z,18.23
2022-10-14T06:16:20.195Z,14.80
2022-10-14T06:18:51.054Z,18.15
2022-10-14T06:21:22.088Z,15.05
2022-10-14T06:23:50.012Z,14.45
2022-10-14T06:26:18.400Z,22.10
2022-10-14T06:28:46.773Z,19.30
2022-10-14T06:31:14.763Z,30.58
2022-10-14T06:33:44.198Z,15.20
2022-10-14T06:36:12.412Z,13.82
2022-10-14T06:38:40.691Z,16.15
2022-10-14T06:41:08.672Z,20.58
2022-10-14T06:43:36.806Z,22.17
2022-10-14T06:46:05.731Z,35.63
2022-10-14T06:48:33.795Z,24.80
2022-10-14T06:51:02.218Z,24.35
2022-10-14T06:53:30.351Z,27.25
2022-10-14T06:56:01.099Z,27.17
2022-10-14T06:58:29.508Z,22.95
2022-10-14T07:03:25.531Z,22.75
2022-10-14T07:05:53.528Z,38.60
2022-10-14T07:08:21.419Z,26.73
2022-10-14T07:10:52.730Z,25.80
2022-10-14T07:13:21.115Z,25.83
2022-10-14T07:15:50.190Z,38.35
2022-10-14T07:18:18.367Z,47.53
2022-10-14T07:20:46.925Z,50.38
2022-10-14T07:23:14.928Z,33.30
2022-10-14T07:25:42.840Z,18.10
2022-10-14T07:28:10.894Z,20.02
2022-10-14T07:30:39.320Z,36.40
2022-10-14T07:33:07.405Z,28.17
2022-10-14T07:35:35.780Z,32.58
2022-10-14T07:38:03.705Z,27.15
2022-10-14T07:40:32.247Z,24.45
2022-10-14T07:43:01.086Z,40.80
2022-10-14T07:45:35.198Z,38.35
2022-10-14T07:48:03.551Z,29.10
2022-10-14T07:50:33.699Z,28.05
2022-10-14T07:53:02.369Z,30.08
2022-10-14T07:55:31.354Z,49.85
2022-10-14T07:57:59.856Z,33.03
2022-10-14T08:00:31.637Z,39.22
2022-10-14T08:03:16.449Z,42.38
2022-10-14T08:05:44.513Z,34.15
2022-10-14T08:08:25.319Z,26.50
2022-10-14T08:11:06.650Z,28.92
2022-10-14T08:13:35.144Z,41.58
2022-10-14T08:16:06.237Z,42.90
2022-10-14T08:18:36.216Z,44.00
2022-10-14T08:23:33.592Z,33.65
2022-10-14T08:26:01.712Z,32.60
2022-10-14T08:28:36.078Z,38.10
2022-10-14T08:31:22.519Z,31.30
2022-10-14T08:33:54.979Z,27.08
2022-10-14T08:36:45.301Z,31.25
2022-10-14T08:39:16.076Z,20.13
2022-10-14T08:42:16.728Z,21.25
2022-10-14T08:44:59.373Z,23.92
2022-10-14T08:47:32.082Z,17.95
2022-10-14T08:50:03.029Z,29.45
2022-10-14T08:52:46.774Z,17.77
2022-10-14T08:55:20.993Z,28.52
2022-10-14T08:57:55.824Z,22.48
2022-10-14T09:00:24.283Z,32.13
2022-10-14T09:02:53.145Z,23.77
2022-10-14T09:05:23.298Z,24.48
2022-10-14T09:07:52.209Z,29.10
2022-10-14T09:10:32.535Z,28.63
2022-10-14T09:13:04.629Z,33.97
2022-10-14T09:15:39.432Z,26.17
2022-10-14T09:18:14.363Z,20.70
2022-10-14T09:20:42.786Z,22.90
2022-10-14T09:23:10.925Z,32.55
2022-10-14T09:25:42.560Z,18.83
2022-10-14T09:28:10.678Z,29.75
2022-10-14T09:30:40.801Z,28.00
2022-10-14T09:33:17.984Z,18.23
2022-10-14T09:35:46.390Z,26.52
2022-10-14T09:38:15.000Z,19.95
2022-10-14T09:40:49.373Z,28.88
2022-10-14T09:43:21.137Z,26.15
2022-10-14T09:45:58.460Z,30.02
2022-10-14T09:48:26.344Z,30.58
2022-10-14T09:50:56.262Z,45.25
2022-10-14T09:56:04.017Z,31.80
2022-10-14T09:58:37.294Z,36.22
2022-10-14T10:01:05.994Z,31.83
2022-10-14T10:03:36.391Z,36.80
2022-10-14T10:06:16.241Z,37.88
2022-10-14T10:08:56.578Z,20.10
2022-10-14T10:11:38.236Z,35.55
2022-10-14T10:14:26.483Z,28.83
2022-10-14T10:17:15.507Z,27.27
2022-10-14T10:19:44.887Z,19.60
2022-10-14T10:22:24.895Z,27.75
2022-10-14T10:25:17.835Z,19.13
2022-10-14T10:27:48.042Z,32.40
2022-10-14T10:30:16.690Z,23.42
2022-10-14T10:33:08.107Z,47.22
2022-10-14T10:35:43.667Z,26.48
2022-10-14T10:38:46.768Z,22.48
2022-10-14T10:41:15.668Z,45.53
2022-10-14T10:44:03.052Z,25.27
2022-10-14T10:46:30.968Z,32.85
2022-10-14T10:49:04.517Z,35.42
2022-10-14T10:51:40.216Z,22.00
2022-10-14T10:54:11.616Z,44.78
2022-10-14T10:57:10.183Z,24.83
2022-10-14T10:59:56.783Z,23.48
2022-10-14T11:02:38.208Z,36.28
2022-10-14T11:05:12.222Z,52.22
2022-10-14T11:11:32.806Z,24.48
2022-10-14T11:14:06.634Z,37.58
2022-10-14T11:16:40.873Z,26.67
2022-10-14T11:19:13.884Z,30.67
2022-10-14T11:21:53.016Z,28.17
2022-10-14T11:24:26.854Z,50.80
2022-10-14T11:27:13.145Z,37.67
2022-10-14T11:29:56.428Z,39.50
2022-10-14T11:33:03.767Z,32.22
2022-10-14T11:36:07.513Z,26.98
2022-10-14T11:41:03.092Z,27.50
2022-10-14T11:43:57.461Z,24.92
2022-10-14T11:46:30.156Z,46.35
2022-10-14T11:49:21.374Z,32.10
2022-10-14T11:51:55.931Z,34.88
2022-10-14T11:54:28.978Z,26.85
2022-10-14T11:57:06.311Z,20.30
2022-10-14T11:59:54.816Z,26.85
2022-10-14T12:02:30.896Z,17.13
2022-10-14T12:05:20.545Z,19.00
2022-10-14T12:08:10.189Z,19.30
2022-10-14T12:10:48.236Z,23.42
2022-10-14T12:13:20.359Z,23.92
2022-10-14T12:15:56.331Z,29.02
2022-10-14T12:21:04.014Z,20.42
2022-10-14T12:23:38.792Z,20.88
2022-10-14T12:26:19.082Z,35.33
2022-10-14T12:28:48.359Z,29.90
2022-10-14T12:31:39.297Z,59.30
2022-10-14T12:34:15.877Z,37.50
2022-10-14T12:36:44.873Z,31.17
2022-10-14T12:39:18.991Z,20.80
2022-10-14T12:42:02.453Z,34.42
2022-10-14T12:44:53.390Z,21.88
2022-10-14T12:47:37.808Z,18.90
2022-10-14T12:50:06.991Z,25.98
2022-10-14T12:52:37.182Z,11.57
2022-10-14T12:55:25.728Z,9.85
2022-10-14T12:58:05.832Z,25.05
2022-10-14T13:00:37.601Z,15.90
2022-10-14T13:03:17.335Z,23.48
2022-10-14T13:05:46.118Z,24.65
2022-10-14T13:08:28.509Z,17.85
2022-10-14T13:10:56.322Z,25.95
2022-10-14T13:13:42.817Z,12.95
2022-10-14T13:16:11.829Z,16.05
2022-10-14T13:19:01.054Z,17.67
2022-10-14T13:21:38.173Z,17.85
2022-10-14T13:24:18.492Z,19.48
2022-10-14T13:26:49.731Z,21.25
2022-10-14T13:29:21.637Z,24.25
2022-10-14T13:32:07.951Z,20.40
2022-10-14T13:34:45.185Z,15.00
2022-10-14T13:37:35.381Z,16.27
2022-10-14T13:40:21.682Z,17.05
2022-10-14T13:42:54.335Z,19.17
2022-10-14T13:45:27.891Z,15.90
2022-10-14T13:47:56.793Z,25.70
2022-10-14T13:50:26.854Z,20.95
2022-10-14T13:52:58.001Z,27.02
2022-10-14T13:55:26.734Z,18.42
2022-10-14T13:58:26.580Z,12.80
2022-10-14T14:01:01.051Z,16.38
2022-10-14T14:03:48.141Z,18.20
2022-10-14T14:06:17.760Z,22.75
2022-10-14T14:09:00.399Z,12.80
2022-10-14T14:11:35.300Z,42.35
2022-10-14T14:14:09.294Z,16.80
2022-10-14T14:16:41.747Z,13.80
2022-10-14T14:19:38.455Z,21.55
2022-10-14T14:22:20.842Z,14.55
2022-10-14T14:24:49.358Z,14.35
2022-10-14T14:27:23.612Z,42.28
2022-10-14T14:29:53.213Z,19.15
2022-10-14T14:32:24.349Z,21.13
2022-10-14T14:40:24.658Z,10.23
2022-10-14T14:43:00.701Z,26.40
2022-10-14T14:48:02.429Z,10.60
2022-10-14T14:50:43.199Z,11.63
2022-10-14T14:53:33.728Z,18.45
2022-10-14T14:56:10.384Z,12.82
2022-10-14T14:58:52.411Z,15.23
2022-10-14T15:01:27.981Z,11.93
2022-10-14T15:04:13.527Z,13.38
2022-10-14T15:06:53.280Z,23.77
2022-10-14T15:09:27.091Z,14.50
2022-10-14T15:11:58.341Z,19.55
2022-10-14T15:14:50.187Z,16.88
2022-10-14T15:17:30.238Z,24.90
2022-10-14T15:19:59.758Z,14.23
2022-10-14T15:22:38.413Z,22.63
2022-10-14T15:25:13.621Z,21.60
2022-10-14T15:27:46.736Z,16.88
2022-10-14T15:30:27.436Z,11.68
2022-10-14T15:32:59.693Z,12.98
2022-10-14T15:35:27.937Z,17.75
2022-10-14T15:37:55.854Z,14.10
2022-10-14T15:40:34.260Z,15.35
2022-10-14T15:43:02.235Z,20.67
2022-10-14T15:45:30.083Z,14.38
2022-10-14T15:48:01.033Z,19.48
2022-10-14T15:50:29.727Z,12.65
2022-10-14T15:52:57.836Z,16.40
2022-10-14T15:55:26.787Z,12.95
2022-10-14T15:57:55.647Z,16.48
2022-10-14T16:00:26.230Z,12.55
2022-10-14T16:02:55.603Z,12.23
2022-10-14T16:05:23.642Z,14.18
2022-10-14T16:07:51.576Z,15.20
2022-10-14T16:10:21.493Z,15.52
2022-10-14T16:15:20.731Z,15.68
2022-10-14T16:17:51.896Z,60.42
2022-10-14T16:20:21.575Z,23.67
2022-10-14T16:22:49.517Z,9.18
2022-10-14T16:25:25.800Z,10.75
2022-10-14T16:27:54.785Z,17.83
2022-10-14T16:30:23.466Z,20.65
2022-10-14T16:32:51.444Z,11.93
2022-10-14T16:35:19.400Z,11.93
2022-10-14T16:37:47.320Z,8.60
2022-10-14T16:40:15.320Z,7.80
2022-10-14T16:42:43.307Z,7.53
2022-10-14T16:45:11.388Z,15.35
2022-10-14T16:47:40.887Z,10.98
2022-10-14T16:50:09.566Z,8.45
2022-10-14T16:52:55.782Z,6.70
2022-10-14T16:55:23.923Z,7.32
2022-10-14T16:57:52.322Z,8.07
2022-10-14T17:00:20.334Z,13.43
2022-10-14T17:02:48.281Z,8.05
2022-10-14T17:05:16.890Z,6.95
2022-10-14T17:07:44.743Z,6.55
2022-10-14T17:10:13.639Z,8.52
2022-10-14T17:12:42.455Z,13.55
2022-10-14T17:15:10.558Z,8.10
2022-10-14T17:17:40.341Z,6.47
2022-10-14T17:20:11.280Z,6.28
2022-10-14T17:22:39.366Z,6.45
2022-10-14T17:25:08.561Z,6.05
2022-10-14T17:27:37.894Z,4.53
2022-10-14T17:30:06.122Z,6.35
2022-10-14T17:32:34.052Z,6.82
2022-10-14T17:35:02.369Z,7.00
2022-10-14T17:37:30.919Z,8.05
2022-10-14T17:39:58.894Z,8.32
2022-10-14T17:42:26.712Z,7.95
2022-10-14T17:44:54.632Z,6.53
2022-10-14T17:47:23.972Z,7.47
2022-10-14T17:49:52.401Z,7.32
2022-10-14T17:52:21.115Z,6.60
2022-10-14T17:54:49.045Z,6.47
2022-10-14T17:57:17.038Z,5.95
2022-10-14T17:59:45.047Z,6.03
2022-10-14T18:02:17.925Z,5.60
2022-10-14T18:04:46.583Z,6.13
2022-10-14T18:07:14.440Z,7.45
2022-10-14T18:09:43.754Z,4.00
2022-10-14T18:12:11.751Z,3.67
2022-10-14T18:14:40.703Z,6.03
2022-10-14T18:17:11.091Z,5.63
2022-10-14T18:19:40.912Z,5.60
2022-10-14T18:22:08.927Z,4.82
2022-10-14T18:24:39.363Z,4.93
2022-10-14T18:27:07.418Z,5.03
2022-10-14T18:29:36.550Z,3.83
2022-10-14T18:32:04.652Z,5.50
2022-10-14T18:34:32.552Z,4.45
2022-10-14T18:37:01.235Z,3.78
2022-10-14T18:39:29.219Z,5.50
2022-10-14T18:41:57.163Z,4.60
2022-10-14T18:44:25.119Z,3.55
2022-10-14T18:46:53.160Z,4.20
2022-10-14T18:49:21.208Z,9.85
2022-10-14T18:51:49.186Z,6.00
2022-10-14T18:54:20.168Z,7.05
2022-10-14T18:56:48.363Z,5.13
2022-10-14T18:59:18.097Z,4.45
2022-10-14T19:04:14.881Z,4.43
2022-10-14T19:06:49.137Z,5.40
2022-10-14T19:09:19.356Z,6.05
2022-10-14T19:11:47.976Z,5.32
2022-10-14T19:14:16.059Z,8.30
2022-10-14T19:16:45.662Z,7.07
2022-10-14T19:19:18.755Z,3.50
2022-10-14T19:21:48.886Z,4.85
2022-10-14T19:24:16.894Z,4.32
2022-10-14T19:26:45.384Z,4.22
2022-10-14T19:29:15.807Z,5.00
2022-10-14T19:31:44.227Z,3.30
2022-10-14T19:34:14.047Z,5.60
2022-10-14T19:36:42.223Z,3.35
2022-10-14T19:39:11.369Z,6.32
2022-10-14T19:41:43.236Z,3.88
2022-10-14T19:44:11.779Z,4.40
2022-10-14T19:46:40.117Z,3.83
2022-10-14T19:49:08.094Z,4.45
2022-10-14T19:51:36.973Z,4.80
2022-10-14T19:54:04.948Z,3.85
2022-10-14T19:56:32.715Z,4.38
2022-10-14T19:59:00.625Z,5.50
2022-10-14T20:01:29.602Z,5.38
2022-10-14T20:03:58.523Z,5.53
2022-10-14T20:06:28.313Z,3.92
2022-10-14T20:08:56.203Z,4.97
2022-10-14T20:11:25.113Z,2.70
2022-10-14T20:13:53.435Z,3.20
2022-10-14T20:16:21.459Z,5.20
2022-10-14T20:18:50.149Z,4.80
2022-10-14T20:21:17.958Z,6.00
2022-10-14T20:23:45.889Z,4.22
2022-10-14T20:26:15.590Z,3.85
2022-10-14T20:28:44.580Z,4.40
2022-10-14T20:31:16.351Z,3.85
2022-10-14T20:33:44.316Z,5.10
2022-10-14T20:36:16.423Z,4.80
2022-10-14T20:38:45.265Z,4.00
2022-10-14T20:41:19.010Z,3.53
2022-10-14T20:43:47.556Z,2.22
2022-10-14T20:46:15.771Z,3.95
2022-10-14T20:48:43.887Z,2.88
2022-10-14T20:51:13.342Z,5.18
2022-10-14T20:56:11.589Z,4.55
2022-10-14T20:58:39.640Z,3.45
2022-10-14T21:01:15.699Z,2.80
2022-10-14T21:03:44.766Z,3.67
2022-10-14T21:06:14.362Z,3.65
2022-10-14T21:08:42.270Z,4.63
2022-10-14T21:11:15.064Z,4.93
2022-10-14T21:13:53.937Z,2.83
2022-10-14T21:16:35.177Z,4.28
2022-10-14T21:19:04.311Z,3.42
2022-10-14T21:21:35.862Z,4.47
2022-10-14T21:24:04.124Z,5.25
2022-10-14T21:26:32.010Z,3.35
2022-10-14T21:29:01.372Z,5.95
2022-10-14T21:31:29.764Z,4.78
2022-10-14T21:34:04.178Z,6.68
2022-10-14T21:36:33.699Z,5.57
2022-10-14T21:39:02.060Z,6.22
2022-10-14T21:41:30.038Z,4.85
2022-10-14T21:43:59.286Z,4.85
2022-10-14T21:46:27.574Z,4.53
2022-10-14T21:49:00.171Z,4.85
2022-10-14T21:51:29.602Z,4.18
2022-10-14T21:53:57.568Z,3.47
2022-10-14T21:56:26.204Z,3.08
2022-10-14T21:58:54.313Z,3.50
2022-10-14T22:01:23.755Z,3.25
2022-10-14T22:03:55.425Z,4.20
2022-10-14T22:06:23.300Z,4.05
2022-10-14T22:08:52.424Z,4.60
2022-10-14T22:11:21.410Z,3.63
2022-10-14T22:13:49.635Z,5.45
2022-10-14T22:16:17.750Z,2.72
2022-10-14T22:18:46.974Z,5.47
2022-10-14T22:21:16.172Z,3.92
2022-10-14T22:23:44.084Z,3.67
2022-10-14T22:26:13.546Z,6.18
2022-10-14T22:28:42.962Z,4.28
2022-10-14T22:31:13.905Z,12.15
2022-10-14T22:33:42.125Z,3.50
2022-10-14T22:36:11.144Z,6.82
2022-10-14T22:38:39.576Z,3.38
2022-10-14T22:41:08.057Z,3.30
2022-10-14T22:43:36.174Z,3.25
2022-10-14T22:46:05.945Z,2.90
2022-10-14T22:48:34.147Z,4.65
2022-10-14T22:51:09.889Z,2.72
2022-10-14T22:53:38.595Z,5.68
2022-10-14T22:56:07.018Z,2.85
2022-10-14T22:58:35.762Z,4.03
2022-10-14T23:01:07.570Z,4.45
2022-10-14T23:03:35.689Z,3.55
2022-10-14T23:06:04.334Z,4.15
2022-10-14T23:08:32.544Z,4.03
2022-10-14T23:11:00.551Z,2.75
2022-10-14T23:13:28.521Z,4.00
2022-10-14T23:16:00.342Z,3.47
2022-10-14T23:18:29.356Z,5.25
2022-10-14T23:20:57.339Z,2.80
2022-10-14T23:23:25.551Z,3.90
2022-10-14T23:25:53.480Z,2.15
2022-10-14T23:28:22.432Z,3.22
2022-10-14T23:30:50.343Z,2.67
2022-10-14T23:33:18.190Z,2.78
2022-10-14T23:35:46.169Z,4.60
2022-10-14T23:38:14.410Z,6.32
2022-10-14T23:40:42.262Z,3.38
2022-10-14T23:43:10.673Z,6.70
2022-10-14T23:45:39.386Z,3.92
2022-10-14T23:48:07.723Z,3.80
2022-10-14T23:50:35.506Z,2.83
2022-10-14T23:53:03.466Z,3.97
2022-10-14T23:55:31.359Z,3.92
2022-10-14T23:57:59.624Z,5.13
